Time,TemperatureF,DewpointF,PressureIn,WindDirection,WindDirectionDegrees,WindSpeedMPH,WindSpeedGustMPH,Humidity,HourlyPrecipIn,Conditions,Clouds,dailyrainin,SoftwareType,DateUTC
2013-08-07 00:00:00,73.3,69.2,29.93,SSE,154,0.0,0.0,87,0.00,,,0.00,VWS V14.01,2013-08-07 04:00:00,
2013-08-07 00:04:00,73.3,69.2,29.93,SSE,154,0.0,0.0,87,0.00,,,0.00,VWS V14.01,2013-08-07 04:04:00,
2013-08-07 00:09:00,73.3,69.2,29.93,SSE,154,0.0,0.0,87,0.00,,,0.00,VWS V14.01,2013-08-07 04:09:00,
2013-08-07 00:10:00,73.3,69.2,29.93,SSE,154,0.0,0.0,87,0.00,,,0.00,VWS V14.01,2013-08-07 04:10:00,
2013-08-07 00:14:00,73.2,69.1,29.93,SSE,154,0.0,0.0,87,0.00,,,0.00,VWS V14.01,2013-08-07 04:14:00,
2013-08-07 00:19:00,73.2,69.1,29.93,SSE,154,0.0,0.0,87,0.00,,,0.00,VWS V14.01,2013-08-07 04:19:00,
2013-08-07 00:20:00,73.2,69.1,29.93,SSE,154,0.0,0.0,87,0.00,,,0.00,VWS V14.01,2013-08-07 04:20:00,
2013-08-07 00:24:00,73.2,69.1,29.93,SSE,154,0.0,0.0,87,0.00,,,0.00,VWS V14.01,2013-08-07 04:24:00,
2013-08-07 00:29:00,73.0,69.2,29.93,SSE,154,0.0,0.0,88,0.00,,,0.00,VWS V14.01,2013-08-07 04:29:00,
2013-08-07 00:30:00,73.0,69.2,29.93,SSE,154,0.0,0.0,88,0.00,,,0.00,VWS V14.01,2013-08-07 04:30:00,
2013-08-07 00:34:00,72.8,69.4,29.93,SSE,154,0.0,0.0,89,0.00,,,0.00,VWS V14.01,2013-08-07 04:34:00,
2013-08-07 00:39:00,72.7,69.3,29.93,SSE,154,0.0,0.0,89,0.00,,,0.00,VWS V14.01,2013-08-07 04:39:00,
2013-08-07 00:40:00,72.7,69.3,29.93,SSE,154,0.0,0.0,89,0.00,,,0.00,VWS V14.01,2013-08-07 04:40:00,
2013-08-07 00:44:00,72.5,69.1,29.93,SSE,154,0.0,0.0,89,0.00,,,0.00,VWS V14.01,2013-08-07 04:44:00,
2013-08-07 00:49:00,72.3,68.9,29.93,SSE,154,0.0,0.0,89,0.00,,,0.00,VWS V14.01,2013-08-07 04:49:00,
2013-08-07 00:50:00,72.3,68.9,29.93,SSE,154,0.0,0.0,89,0.00,,,0.00,VWS V14.01,2013-08-07 04:50:00,
2013-08-07 00:54:00,72.3,69.2,29.93,SSE,154,0.0,0.0,90,0.00,,,0.00,VWS V14.01,2013-08-07 04:54:00,
2013-08-07 00:59:00,72.1,69.0,29.94,SSE,154,0.0,0.0,90,0.00,,,0.00,VWS V14.01,2013-08-07 04:59:00,
2013-08-07 01:00:00,72.1,69.0,29.94,SSE,154,0.0,0.0,90,0.00,,,0.00,VWS V14.01,2013-08-07 05:00:00,
2013-08-07 01:04:00,72.1,69.0,29.94,SSE,154,0.0,0.0,90,0.00,,,0.00,VWS V14.01,2013-08-07 05:04:00,
2013-08-07 01:09:00,72.1,69.3,29.94,SSE,154,0.0,0.0,91,0.00,,,0.00,VWS V14.01,2013-08-07 05:09:00,
2013-08-07 01:10:00,72.1,69.3,29.94,SSE,154,0.0,0.0,91,0.00,,,0.00,VWS V14.01,2013-08-07 05:10:00,
2013-08-07 01:14:00,72.1,69.3,29.95,SSE,154,0.0,0.0,91,0.00,,,0.00,VWS V14.01,2013-08-07 05:14:00,
2013-08-07 01:19:00,72.1,69.3,29.95,SSE,154,0.0,0.0,91,0.00,,,0.00,VWS V14.01,2013-08-07 05:19:00,
2013-08-07 01:20:00,72.1,69.3,29.95,SSE,154,0.0,0.0,91,0.00,,,0.00,VWS V14.01,2013-08-07 05:20:00,
2013-08-07 01:24:00,72.1,69.3,29.95,SSE,154,0.0,0.0,91,0.00,,,0.00,VWS V14.01,2013-08-07 05:24:00,
2013-08-07 01:29:00,72.1,69.7,29.94,SSE,154,0.0,0.0,92,0.00,,,0.00,VWS V14.01,2013-08-07 05:29:00,
2013-08-07 01:30:00,72.1,69.7,29.94,SSE,154,0.0,0.0,92,0.00,,,0.00,VWS V14.01,2013-08-07 05:30:00,
2013-08-07 01:34:00,72.1,69.7,29.94,SSE,154,0.0,0.0,92,0.00,,,0.00,VWS V14.01,2013-08-07 05:34:00,
2013-08-07 01:39:00,72.3,69.8,29.94,SSE,154,0.0,0.0,92,0.00,,,0.00,VWS V14.01,2013-08-07 05:39:00,
2013-08-07 01:40:00,72.3,69.8,29.94,SSE,154,0.0,0.0,92,0.00,,,0.00,VWS V14.01,2013-08-07 05:40:00,
2013-08-07 01:44:00,72.5,70.1,29.94,SSE,154,0.0,0.0,92,0.00,,,0.00,VWS V14.01,2013-08-07 05:44:00,
2013-08-07 01:49:00,72.5,70.1,29.94,SSE,154,0.0,0.0,92,0.00,,,0.00,VWS V14.01,2013-08-07 05:49:00,
2013-08-07 01:50:00,72.5,70.1,29.94,SSE,154,0.0,0.0,92,0.00,,,0.00,VWS V14.01,2013-08-07 05:50:00,
2013-08-07 01:54:00,72.5,70.1,29.94,SSE,154,0.0,0.0,92,0.00,,,0.00,VWS V14.01,2013-08-07 05:54:00,
2013-08-07 01:59:00,72.7,70.2,29.94,SSE,154,0.0,0.0,92,0.00,,,0.00,VWS V14.01,2013-08-07 05:59:00,
2013-08-07 02:00:00,72.7,70.2,29.94,SSE,154,0.0,0.0,92,0.00,,,0.00,VWS V14.01,2013-08-07 06:00:00,
2013-08-07 02:04:00,72.7,70.2,29.94,SSE,154,0.0,0.0,92,0.00,,,0.00,VWS V14.01,2013-08-07 06:04:00,
2013-08-07 02:10:00,72.7,70.2,29.94,SSE,154,0.0,0.0,92,0.00,,,0.00,VWS V14.01,2013-08-07 06:10:00,
2013-08-07 02:15:00,72.8,70.3,29.94,SSE,154,0.0,0.0,92,0.00,,,0.00,VWS V14.01,2013-08-07 06:15:00,
2013-08-07 02:20:00,73.0,70.5,29.94,SSE,154,0.0,0.0,92,0.00,,,0.00,VWS V14.01,2013-08-07 06:20:00,
2013-08-07 02:25:00,73.2,70.7,29.94,SSE,154,0.0,0.0,92,0.00,,,0.00,VWS V14.01,2013-08-07 06:25:00,
2013-08-07 02:30:00,73.2,70.7,29.94,SSE,154,0.0,0.0,92,0.00,,,0.00,VWS V14.01,2013-08-07 06:30:00,
2013-08-07 02:35:00,73.3,70.8,29.94,SSE,154,0.0,0.0,92,0.00,,,0.00,VWS V14.01,2013-08-07 06:35:00,
2013-08-07 02:40:00,73.3,70.8,29.94,SSE,154,0.0,0.0,92,0.00,,,0.00,VWS V14.01,2013-08-07 06:40:00,
2013-08-07 02:45:00,73.3,70.8,29.94,SSE,154,0.0,0.0,92,0.00,,,0.00,VWS V14.01,2013-08-07 06:45:00,
2013-08-07 02:50:00,73.3,70.8,29.94,SSE,154,0.0,0.0,92,0.00,,,0.00,VWS V14.01,2013-08-07 06:50:00,
2013-08-07 02:55:00,73.3,70.8,29.94,SSE,154,0.0,0.0,92,0.00,,,0.00,VWS V14.01,2013-08-07 06:55:00,
2013-08-07 03:00:00,73.3,70.8,29.94,SSE,154,0.0,0.0,92,0.00,,,0.00,VWS V14.01,2013-08-07 07:00:00,
2013-08-07 03:10:00,73.3,70.8,29.94,SSE,154,0.0,0.0,92,0.00,,,0.00,VWS V14.01,2013-08-07 07:10:00,
2013-08-07 03:15:00,73.3,70.8,29.94,SSE,154,0.0,0.0,92,0.00,,,0.00,VWS V14.01,2013-08-07 07:15:00,
2013-08-07 03:20:00,73.5,71.0,29.94,SSE,154,0.0,0.0,92,0.00,,,0.00,VWS V14.01,2013-08-07 07:20:00,
2013-08-07 03:25:00,73.5,71.0,29.94,SSE,154,0.0,0.0,92,0.00,,,0.00,VWS V14.01,2013-08-07 07:25:00,
2013-08-07 03:30:00,73.5,71.0,29.93,SSE,154,0.0,0.0,92,0.00,,,0.00,VWS V14.01,2013-08-07 07:30:00,
2013-08-07 03:35:00,73.5,71.0,29.93,SSE,154,0.0,0.0,92,0.00,,,0.00,VWS V14.01,2013-08-07 07:35:00,
2013-08-07 03:40:00,73.5,71.0,29.93,SSE,154,0.0,0.0,92,0.00,,,0.00,VWS V14.01,2013-08-07 07:40:00,
2013-08-07 03:45:00,73.5,71.0,29.93,SSE,154,0.0,0.0,92,0.00,,,0.00,VWS V14.01,2013-08-07 07:45:00,
2013-08-07 03:50:00,73.3,70.8,29.93,SSE,154,0.0,0.0,92,0.00,,,0.00,VWS V14.01,2013-08-07 07:50:00,
2013-08-07 03:55:00,73.3,71.2,29.93,SSE,154,0.0,0.0,93,0.00,,,0.00,VWS V14.01,2013-08-07 07:55:00,
2013-08-07 04:00:00,73.3,71.2,29.92,SSE,154,0.0,0.0,93,0.00,,,0.00,VWS V14.01,2013-08-07 08:00:00,
2013-08-07 04:05:00,73.2,71.1,29.92,SSE,154,0.0,0.0,93,0.00,,,0.00,VWS V14.01,2013-08-07 08:05:00,
2013-08-07 04:09:00,73.3,70.8,29.94,SSE,154,0.0,0.0,92,0.00,,,0.00,VWS V14.01,2013-08-07 08:09:00,
2013-08-07 04:10:00,73.2,71.1,29.92,SSE,154,0.0,0.0,93,0.00,,,0.00,VWS V14.01,2013-08-07 08:10:00,
2013-08-07 04:15:00,73.0,70.9,29.92,SSE,154,0.0,0.0,93,0.00,,,0.00,VWS V14.01,2013-08-07 08:15:00,
2013-08-07 04:20:00,73.0,70.9,29.92,SSE,154,0.0,0.0,93,0.00,,,0.00,VWS V14.01,2013-08-07 08:20:00,
2013-08-07 04:24:00,73.5,71.0,29.94,SSE,154,0.0,0.0,92,0.00,,,0.00,VWS V14.01,2013-08-07 08:24:00,
2013-08-07 04:30:00,73.0,71.2,29.91,SSE,154,0.0,0.0,94,0.00,,,0.00,VWS V14.01,2013-08-07 08:30:00,
2013-08-07 04:44:00,73.5,71.0,29.93,SSE,154,0.0,0.0,92,0.00,,,0.00,VWS V14.01,2013-08-07 08:44:00,
2013-08-07 04:50:00,73.0,71.2,29.92,SSE,154,0.0,0.0,94,0.00,,,0.00,VWS V14.01,2013-08-07 08:50:00,
2013-08-07 04:55:00,73.0,71.2,29.92,SSE,154,0.0,0.0,94,0.00,,,0.00,VWS V14.01,2013-08-07 08:55:00,
2013-08-07 05:00:00,73.2,71.4,29.93,SSE,154,0.0,0.0,94,0.00,,,0.00,VWS V14.01,2013-08-07 09:00:00,
2013-08-07 05:04:00,73.3,71.2,29.92,SSE,154,0.0,0.0,93,0.00,,,0.00,VWS V14.01,2013-08-07 09:04:00,
2013-08-07 05:10:00,73.2,71.7,29.93,SSE,154,0.0,0.0,95,0.00,,,0.00,VWS V14.01,2013-08-07 09:10:00,
2013-08-07 05:14:00,73.2,71.1,29.92,SSE,154,0.0,0.0,93,0.00,,,0.00,VWS V14.01,2013-08-07 09:14:00,
2013-08-07 05:15:00,73.2,71.7,29.93,SSE,154,0.0,0.0,95,0.00,,,0.00,VWS V14.01,2013-08-07 09:15:00,
2013-08-07 05:20:00,73.3,71.8,29.93,SSE,154,0.0,0.0,95,0.00,,,0.00,VWS V14.01,2013-08-07 09:20:00,
2013-08-07 05:24:00,73.0,70.9,29.92,SSE,154,0.0,0.0,93,0.00,,,0.00,VWS V14.01,2013-08-07 09:24:00,
2013-08-07 05:29:00,73.0,71.2,29.92,SSE,154,0.0,0.0,94,0.00,,,0.00,VWS V14.01,2013-08-07 09:29:00,
2013-08-07 05:39:00,73.0,71.2,29.91,SSE,154,0.0,0.0,94,0.00,,,0.00,VWS V14.01,2013-08-07 09:39:00,
2013-08-07 05:40:00,73.3,71.8,29.94,SSE,154,0.0,0.0,95,0.00,,,0.00,VWS V14.01,2013-08-07 09:40:00,
2013-08-07 05:44:00,72.8,71.0,29.91,SSE,154,0.0,0.0,94,0.00,,,0.00,VWS V14.01,2013-08-07 09:44:00,
2013-08-07 05:50:00,72.8,71.0,29.92,SSE,154,0.0,0.0,94,0.00,,,0.00,VWS V14.01,2013-08-07 09:50:00,
2013-08-07 06:05:00,73.2,71.4,29.93,SSE,154,0.0,0.0,94,0.00,,,0.00,VWS V14.01,2013-08-07 10:05:00,
2013-08-07 06:10:00,73.2,71.4,29.93,SSE,154,0.0,0.0,94,0.00,,,0.00,VWS V14.01,2013-08-07 10:10:00,
2013-08-07 06:15:00,73.2,71.7,29.93,SSE,154,0.0,0.0,95,0.00,,,0.00,VWS V14.01,2013-08-07 10:15:00,
2013-08-07 06:25:00,73.3,71.8,29.93,SSE,154,0.0,0.0,95,0.00,,,0.00,VWS V14.01,2013-08-07 10:25:00,
2013-08-07 06:30:00,73.3,71.8,29.93,SSE,154,0.0,0.0,95,0.00,,,0.00,VWS V14.01,2013-08-07 10:30:00,
2013-08-07 06:35:00,73.3,71.8,29.94,SSE,154,0.0,0.0,95,0.00,,,0.00,VWS V14.01,2013-08-07 10:35:00,
2013-08-07 06:40:00,73.3,71.8,29.94,SSE,154,0.0,0.0,95,0.00,,,0.00,VWS V14.01,2013-08-07 10:40:00,
2013-08-07 06:50:00,73.3,71.8,29.95,SSE,154,0.0,0.0,95,0.00,,,0.00,VWS V14.01,2013-08-07 10:50:00,
2013-08-07 06:55:00,73.3,71.5,29.95,SSE,154,0.0,0.0,94,0.00,,,0.00,VWS V14.01,2013-08-07 10:55:00,
2013-08-07 07:00:00,73.3,71.5,29.95,SSE,154,0.0,0.0,94,0.00,,,0.00,VWS V14.01,2013-08-07 11:00:00,
2013-08-07 07:05:00,73.3,71.8,29.94,SSE,154,0.0,0.0,95,0.00,,,0.00,VWS V14.01,2013-08-07 11:05:00,
2013-08-07 07:10:00,73.3,71.8,29.94,SSE,154,0.0,0.0,95,0.00,,,0.00,VWS V14.01,2013-08-07 11:10:00,
2013-08-07 07:15:00,73.3,71.8,29.94,SSE,154,0.0,0.0,95,0.00,,,0.00,VWS V14.01,2013-08-07 11:15:00,
2013-08-07 07:20:00,73.3,71.8,29.94,SSE,154,0.0,0.0,95,0.00,,,0.00,VWS V14.01,2013-08-07 11:20:00,
2013-08-07 07:25:00,73.3,71.8,29.94,SSE,154,0.0,0.0,95,0.00,,,0.00,VWS V14.01,2013-08-07 11:25:00,
2013-08-07 07:30:00,73.5,72.0,29.94,SSE,154,0.0,0.0,95,0.00,,,0.00,VWS V14.01,2013-08-07 11:30:00,
2013-08-07 07:35:00,73.7,72.2,29.95,SSE,154,1.0,0.0,95,0.00,,,0.00,VWS V14.01,2013-08-07 11:35:00,
2013-08-07 07:40:00,73.7,72.2,29.95,SSE,154,0.0,0.0,95,0.00,,,0.00,VWS V14.01,2013-08-07 11:40:00,
2013-08-07 07:45:00,73.9,72.1,29.95,SSE,154,0.0,0.0,94,0.00,,,0.00,VWS V14.01,2013-08-07 11:45:00,
2013-08-07 07:50:00,74.0,72.2,29.94,SSE,154,0.0,0.0,94,0.00,,,0.00,VWS V14.01,2013-08-07 11:50:00,
2013-08-07 07:55:00,74.2,72.4,29.94,SSE,154,0.0,0.0,94,0.00,,,0.00,VWS V14.01,2013-08-07 11:55:00,
2013-08-07 08:00:00,74.4,72.6,29.94,SSE,154,0.0,0.0,94,0.00,,,0.00,VWS V14.01,2013-08-07 12:00:00,
2013-08-07 08:05:00,74.6,72.4,29.95,SSE,154,0.0,0.0,93,0.00,,,0.00,VWS V14.01,2013-08-07 12:05:00,
2013-08-07 08:10:00,74.7,72.6,29.95,SSE,154,0.0,0.0,93,0.00,,,0.00,VWS V14.01,2013-08-07 12:10:00,
2013-08-07 08:15:00,74.9,72.4,29.95,SSE,154,0.0,0.0,92,0.00,,,0.00,VWS V14.01,2013-08-07 12:15:00,
2013-08-07 08:20:00,74.9,72.4,29.95,SSE,154,0.0,0.0,92,0.00,,,0.00,VWS V14.01,2013-08-07 12:20:00,
2013-08-07 08:25:00,75.1,72.3,29.95,SSE,154,0.0,0.0,91,0.00,,,0.00,VWS V14.01,2013-08-07 12:25:00,
2013-08-07 08:30:00,75.1,72.0,29.95,SW,215,1.0,0.0,90,0.00,,,0.00,VWS V14.01,2013-08-07 12:30:00,
2013-08-07 08:35:00,75.3,71.8,29.95,SW,215,0.0,0.0,89,0.00,,,0.00,VWS V14.01,2013-08-07 12:35:00,
2013-08-07 08:40:00,75.4,71.6,29.95,SW,215,0.0,0.0,88,0.00,,,0.00,VWS V14.01,2013-08-07 12:40:00,
2013-08-07 08:45:00,75.8,71.7,29.95,SW,215,0.0,0.0,87,0.00,,,0.00,VWS V14.01,2013-08-07 12:45:00,
2013-08-07 08:50:00,76.0,71.5,29.94,SW,215,0.0,0.0,86,0.00,,,0.00,VWS V14.01,2013-08-07 12:50:00,
2013-08-07 08:55:00,76.1,71.6,29.94,SW,215,0.0,0.0,86,0.00,,,0.00,VWS V14.01,2013-08-07 12:55:00,
2013-08-07 09:00:00,76.3,71.5,29.94,SW,215,0.0,0.0,85,0.00,,,0.00,VWS V14.01,2013-08-07 13:00:00,
2013-08-07 09:05:00,76.3,71.5,29.94,SW,215,0.0,0.0,85,0.00,,,0.00,VWS V14.01,2013-08-07 13:05:00,
2013-08-07 09:10:00,76.7,71.5,29.94,SW,215,0.0,0.0,84,0.00,,,0.00,VWS V14.01,2013-08-07 13:10:00,
2013-08-07 09:15:00,77.0,71.4,29.94,SW,215,1.0,0.0,83,0.00,,,0.00,VWS V14.01,2013-08-07 13:15:00,
2013-08-07 09:20:00,77.2,71.6,29.94,SW,215,0.0,0.0,83,0.00,,,0.00,VWS V14.01,2013-08-07 13:20:00,
2013-08-07 09:25:00,77.4,71.8,29.94,SE,136,0.0,0.0,83,0.00,,,0.00,VWS V14.01,2013-08-07 13:25:00,
2013-08-07 09:30:00,77.6,71.3,29.94,SSE,166,0.0,0.0,81,0.00,,,0.00,VWS V14.01,2013-08-07 13:30:00,
2013-08-07 09:35:00,78.1,71.4,29.94,SSE,166,0.0,0.0,80,0.00,,,0.00,VWS V14.01,2013-08-07 13:35:00,
2013-08-07 09:40:00,78.3,70.5,29.94,SW,217,0.0,0.0,77,0.00,,,0.00,VWS V14.01,2013-08-07 13:40:00,
2013-08-07 09:45:00,78.5,69.9,29.94,SSW,207,0.0,0.0,75,0.00,,,0.00,VWS V14.01,2013-08-07 13:45:00,
2013-08-07 09:50:00,78.6,69.6,29.94,SSW,207,0.0,0.0,74,0.00,,,0.00,VWS V14.01,2013-08-07 13:50:00,
2013-08-07 09:55:00,78.8,69.8,29.94,SSW,207,0.0,0.0,74,0.00,,,0.00,VWS V14.01,2013-08-07 13:55:00,
2013-08-07 10:00:00,78.8,69.8,29.94,SW,230,0.0,0.0,74,0.00,,,0.00,VWS V14.01,2013-08-07 14:00:00,
2013-08-07 10:05:00,79.0,70.0,29.94,SW,230,1.0,0.0,74,0.00,,,0.00,VWS V14.01,2013-08-07 14:05:00,
2013-08-07 10:10:00,79.2,70.2,29.94,SSW,194,0.0,0.0,74,0.00,,,0.00,VWS V14.01,2013-08-07 14:10:00,
2013-08-07 10:15:00,79.2,70.2,29.94,South,180,0.0,0.0,74,0.00,,,0.00,VWS V14.01,2013-08-07 14:15:00,
2013-08-07 10:20:00,78.8,69.0,29.96,SSW,199,2.0,0.0,72,0.00,,,0.00,VWS V14.01,2013-08-07 14:20:00,
2013-08-07 10:25:00,79.0,69.2,29.96,SSW,198,1.0,0.0,72,0.00,,,0.00,VWS V14.01,2013-08-07 14:25:00,
2013-08-07 10:30:00,79.0,68.8,29.96,SSW,211,0.0,0.0,71,0.00,,,0.00,VWS V14.01,2013-08-07 14:30:00,
2013-08-07 10:35:00,79.2,68.6,29.96,SW,219,1.0,0.0,70,0.00,,,0.00,VWS V14.01,2013-08-07 14:35:00,
2013-08-07 10:40:00,79.4,68.8,29.96,SW,217,0.0,0.0,70,0.00,,,0.00,VWS V14.01,2013-08-07 14:40:00,
2013-08-07 10:45:00,79.6,69.4,29.96,South,187,0.0,0.0,71,0.00,,,0.00,VWS V14.01,2013-08-07 14:45:00,
2013-08-07 10:50:00,79.9,68.8,29.96,SSW,200,0.0,0.0,69,0.00,,,0.00,VWS V14.01,2013-08-07 14:50:00,
2013-08-07 10:55:00,79.9,69.2,29.96,South,169,0.0,0.0,70,0.00,,,0.00,VWS V14.01,2013-08-07 14:55:00,
2013-08-07 11:00:00,80.1,69.4,29.96,South,184,0.0,0.0,70,0.00,,,0.00,VWS V14.01,2013-08-07 15:00:00,
2013-08-07 11:05:00,80.9,69.8,29.96,South,184,0.0,0.0,69,0.00,,,0.00,VWS V14.01,2013-08-07 15:05:00,
2013-08-07 11:10:00,81.1,69.1,29.96,SW,221,0.0,0.0,67,0.00,,,0.00,VWS V14.01,2013-08-07 15:10:00,
2013-08-07 11:15:00,81.1,69.6,29.96,SW,216,1.0,0.0,68,0.00,,,0.00,VWS V14.01,2013-08-07 15:15:00,
2013-08-07 11:20:00,81.2,69.6,29.96,SSW,196,0.0,0.0,68,0.00,,,0.00,VWS V14.01,2013-08-07 15:20:00,
2013-08-07 11:25:00,81.1,69.6,29.96,SSW,196,0.0,0.0,68,0.00,,,0.00,VWS V14.01,2013-08-07 15:25:00,
2013-08-07 11:30:00,80.9,69.8,29.96,WSW,254,0.0,0.0,69,0.00,,,0.00,VWS V14.01,2013-08-07 15:30:00,
2013-08-07 11:35:00,80.9,69.8,29.96,SSW,193,1.0,0.0,69,0.00,,,0.00,VWS V14.01,2013-08-07 15:35:00,
2013-08-07 11:40:00,80.7,69.6,29.96,SSW,192,0.0,0.0,69,0.00,,,0.00,VWS V14.01,2013-08-07 15:40:00,
2013-08-07 11:45:00,80.9,69.4,29.96,SSW,205,0.0,0.0,68,0.00,,,0.00,VWS V14.01,2013-08-07 15:45:00,
2013-08-07 11:50:00,81.2,69.6,29.95,SSW,194,1.0,0.0,68,0.00,,,0.00,VWS V14.01,2013-08-07 15:50:00,
2013-08-07 11:55:00,81.6,70.0,29.95,SW,219,0.0,0.0,68,0.00,,,0.00,VWS V14.01,2013-08-07 15:55:00,
2013-08-07 12:00:00,81.8,69.8,29.95,SW,219,0.0,0.0,67,0.00,,,0.00,VWS V14.01,2013-08-07 16:00:00,
2013-08-07 12:05:00,81.8,69.3,29.95,South,190,0.0,0.0,66,0.00,,,0.00,VWS V14.01,2013-08-07 16:05:00,
2013-08-07 12:10:00,81.6,69.6,29.95,SSW,195,1.0,0.0,67,0.00,,,0.00,VWS V14.01,2013-08-07 16:10:00,
2013-08-07 12:15:00,81.4,69.4,29.95,SW,219,0.0,0.0,67,0.00,,,0.00,VWS V14.01,2013-08-07 16:15:00,
2013-08-07 12:21:00,81.2,69.2,29.94,South,177,0.0,0.0,67,0.00,,,0.00,VWS V14.01,2013-08-07 16:21:00,
2013-08-07 12:26:00,81.1,69.6,29.94,South,177,1.0,0.0,68,0.00,,,0.00,VWS V14.01,2013-08-07 16:26:00,
2013-08-07 12:31:00,81.1,70.0,29.94,South,177,0.0,0.0,69,0.00,,,0.00,VWS V14.01,2013-08-07 16:31:00,
2013-08-07 12:36:00,81.1,70.4,29.94,South,177,1.0,0.0,70,0.00,,,0.00,VWS V14.01,2013-08-07 16:36:00,
2013-08-07 12:41:00,80.7,70.4,29.94,South,177,0.0,0.0,71,0.00,,,0.00,VWS V14.01,2013-08-07 16:41:00,
2013-08-07 12:46:00,80.5,70.7,29.94,South,170,0.0,0.0,72,0.00,,,0.00,VWS V14.01,2013-08-07 16:46:00,
2013-08-07 12:51:00,80.3,70.9,29.94,South,170,0.0,0.0,73,0.00,,,0.00,VWS V14.01,2013-08-07 16:51:00,
2013-08-07 12:56:00,80.5,70.7,29.94,South,170,0.0,0.0,72,0.00,,,0.00,VWS V14.01,2013-08-07 16:56:00,
2013-08-07 13:01:00,80.7,70.4,29.94,SW,217,0.0,0.0,71,0.00,,,0.00,VWS V14.01,2013-08-07 17:01:00,
2013-08-07 13:06:00,80.3,69.6,29.94,SSE,151,0.0,0.0,70,0.00,,,0.00,VWS V14.01,2013-08-07 17:06:00,
2013-08-07 13:11:00,79.4,69.6,29.94,South,191,0.0,0.0,72,0.00,,,0.00,VWS V14.01,2013-08-07 17:11:00,
2013-08-07 13:16:00,78.8,69.8,29.94,South,191,0.0,0.0,74,0.00,,,0.00,VWS V14.01,2013-08-07 17:16:00,
2013-08-07 13:21:00,78.5,69.5,29.94,South,191,0.0,0.0,74,0.00,,,0.00,VWS V14.01,2013-08-07 17:21:00,
2013-08-07 13:26:00,78.3,69.3,29.94,South,191,0.0,0.0,74,0.00,,,0.00,VWS V14.01,2013-08-07 17:26:00,
2013-08-07 13:31:00,78.1,69.9,29.94,South,191,0.0,0.0,76,0.00,,,0.00,VWS V14.01,2013-08-07 17:31:00,
2013-08-07 13:36:00,77.9,70.9,29.94,South,191,0.0,0.0,79,0.00,,,0.00,VWS V14.01,2013-08-07 17:36:00,
2013-08-07 13:41:00,77.7,71.0,29.94,South,191,0.0,0.0,80,0.00,,,0.00,VWS V14.01,2013-08-07 17:41:00,
2013-08-07 13:46:00,77.4,71.5,29.94,South,191,0.0,0.0,82,0.01,,,0.01,VWS V14.01,2013-08-07 17:46:00,
2013-08-07 13:51:00,77.2,72.0,29.94,SSW,192,0.0,0.0,84,0.01,,,0.01,VWS V14.01,2013-08-07 17:51:00,
2013-08-07 13:56:00,77.0,72.2,29.94,South,191,0.0,0.0,85,0.01,,,0.01,VWS V14.01,2013-08-07 17:56:00,
2013-08-07 14:01:00,77.0,72.5,29.94,South,191,0.0,0.0,86,0.01,,,0.01,VWS V14.01,2013-08-07 18:01:00,
2013-08-07 14:06:00,77.2,72.7,29.94,SSW,192,0.0,0.0,86,0.01,,,0.01,VWS V14.01,2013-08-07 18:06:00,
2013-08-07 14:11:00,77.2,72.7,29.94,South,191,0.0,0.0,86,0.01,,,0.01,VWS V14.01,2013-08-07 18:11:00,
2013-08-07 14:16:00,77.4,72.5,29.94,South,188,0.0,0.0,85,0.01,,,0.01,VWS V14.01,2013-08-07 18:16:00,
2013-08-07 14:21:00,77.7,72.8,29.93,South,188,0.0,0.0,85,0.01,,,0.01,VWS V14.01,2013-08-07 18:21:00,
2013-08-07 14:26:00,77.9,72.7,29.93,South,188,0.0,0.0,84,0.01,,,0.01,VWS V14.01,2013-08-07 18:26:00,
2013-08-07 14:31:00,78.1,72.9,29.93,South,188,0.0,0.0,84,0.01,,,0.01,VWS V14.01,2013-08-07 18:31:00,
2013-08-07 14:36:00,78.5,73.6,29.93,South,188,0.0,0.0,85,0.01,,,0.01,VWS V14.01,2013-08-07 18:36:00,
2013-08-07 14:41:00,78.8,73.6,29.93,South,188,0.0,0.0,84,0.01,,,0.01,VWS V14.01,2013-08-07 18:41:00,
2013-08-07 14:46:00,79.2,73.9,29.93,South,188,0.0,0.0,84,0.01,,,0.01,VWS V14.01,2013-08-07 18:46:00,
2013-08-07 14:51:00,79.8,73.8,29.92,South,188,1.0,0.0,82,0.01,,,0.01,VWS V14.01,2013-08-07 18:51:00,
2013-08-07 14:56:00,80.1,73.4,29.92,South,188,0.0,0.0,80,0.00,,,0.01,VWS V14.01,2013-08-07 18:56:00,
2013-08-07 15:01:00,80.7,73.2,29.92,South,188,0.0,0.0,78,0.00,,,0.01,VWS V14.01,2013-08-07 19:01:00,
2013-08-07 15:06:00,80.9,73.0,29.92,South,190,0.0,0.0,77,0.00,,,0.01,VWS V14.01,2013-08-07 19:06:00,
2013-08-07 15:11:00,81.1,73.2,29.92,South,190,0.0,0.0,77,0.00,,,0.01,VWS V14.01,2013-08-07 19:11:00,
2013-08-07 15:16:00,81.1,73.2,29.92,South,190,0.0,0.0,77,0.00,,,0.01,VWS V14.01,2013-08-07 19:16:00,
2013-08-07 15:21:00,81.2,72.9,29.91,South,190,0.0,0.0,76,0.00,,,0.01,VWS V14.01,2013-08-07 19:21:00,
2013-08-07 15:26:00,81.6,73.7,29.91,South,190,0.0,0.0,77,0.00,,,0.01,VWS V14.01,2013-08-07 19:26:00,
2013-08-07 15:31:00,82.2,73.5,29.91,South,190,0.0,0.0,75,0.00,,,0.01,VWS V14.01,2013-08-07 19:31:00,
2013-08-07 15:36:00,82.6,73.9,29.91,South,190,0.0,0.0,75,0.00,,,0.01,VWS V14.01,2013-08-07 19:36:00,
2013-08-07 15:41:00,82.6,73.1,29.91,South,190,0.0,0.0,73,0.00,,,0.01,VWS V14.01,2013-08-07 19:41:00,
2013-08-07 15:46:00,83.2,73.7,29.91,SW,229,0.0,0.0,73,0.00,,,0.01,VWS V14.01,2013-08-07 19:46:00,
2013-08-07 15:51:00,83.4,72.6,29.90,SW,229,0.0,0.0,70,0.00,,,0.01,VWS V14.01,2013-08-07 19:51:00,
2013-08-07 15:56:00,83.4,73.0,29.90,SW,214,1.0,0.0,71,0.00,,,0.01,VWS V14.01,2013-08-07 19:56:00,
2013-08-07 16:01:00,82.8,72.4,29.90,SW,214,0.0,0.0,71,0.00,,,0.01,VWS V14.01,2013-08-07 20:01:00,
2013-08-07 16:06:00,82.4,72.9,29.89,SW,214,0.0,0.0,73,0.00,,,0.01,VWS V14.01,2013-08-07 20:06:00,
2013-08-07 16:11:00,82.2,73.1,29.89,SW,214,0.0,0.0,74,0.00,,,0.01,VWS V14.01,2013-08-07 20:11:00,
2013-08-07 16:16:00,81.6,73.7,29.89,SW,214,0.0,0.0,77,0.00,,,0.01,VWS V14.01,2013-08-07 20:16:00,
2013-08-07 16:21:00,81.1,74.7,29.89,SW,214,0.0,0.0,81,0.02,,,0.03,VWS V14.01,2013-08-07 20:21:00,
2013-08-07 16:26:00,80.3,74.3,29.89,SW,214,0.0,0.0,82,0.06,,,0.07,VWS V14.01,2013-08-07 20:26:00,
2013-08-07 16:31:00,79.8,74.2,29.89,SW,214,0.0,0.0,83,0.06,,,0.07,VWS V14.01,2013-08-07 20:31:00,
2013-08-07 16:36:00,79.2,74.3,29.89,SW,214,0.0,0.0,85,0.06,,,0.07,VWS V14.01,2013-08-07 20:36:00,
2013-08-07 16:41:00,79.0,74.8,29.89,SW,214,0.0,0.0,87,0.06,,,0.07,VWS V14.01,2013-08-07 20:41:00,
2013-08-07 16:46:00,78.8,74.9,29.89,SW,214,0.0,0.0,88,0.06,,,0.07,VWS V14.01,2013-08-07 20:46:00,
2013-08-07 16:51:00,78.8,74.9,29.89,SW,214,0.0,0.0,88,0.06,,,0.07,VWS V14.01,2013-08-07 20:51:00,
2013-08-07 16:56:00,79.0,75.5,29.89,SW,214,0.0,0.0,89,0.06,,,0.07,VWS V14.01,2013-08-07 20:56:00,
2013-08-07 17:01:00,79.0,75.5,29.89,SW,214,0.0,0.0,89,0.06,,,0.07,VWS V14.01,2013-08-07 21:01:00,
2013-08-07 17:06:00,79.0,75.2,29.89,SW,214,0.0,0.0,88,0.06,,,0.07,VWS V14.01,2013-08-07 21:06:00,
2013-08-07 17:11:00,79.0,74.8,29.89,SW,214,0.0,0.0,87,0.06,,,0.07,VWS V14.01,2013-08-07 21:11:00,
2013-08-07 17:16:00,79.0,75.2,29.89,SSW,213,0.0,0.0,88,0.06,,,0.07,VWS V14.01,2013-08-07 21:16:00,
2013-08-07 17:21:00,79.0,74.5,29.89,SSW,213,0.0,0.0,86,0.06,,,0.07,VWS V14.01,2013-08-07 21:21:00,
2013-08-07 17:26:00,79.0,74.8,29.89,SSW,213,0.0,0.0,87,0.00,,,0.07,VWS V14.01,2013-08-07 21:26:00,
2013-08-07 17:31:00,79.0,74.1,29.89,SSW,213,0.0,0.0,85,0.00,,,0.07,VWS V14.01,2013-08-07 21:31:00,
2013-08-07 17:36:00,79.0,73.8,29.89,SSW,213,0.0,0.0,84,0.00,,,0.07,VWS V14.01,2013-08-07 21:36:00,
2013-08-07 17:41:00,79.0,73.8,29.89,SSW,213,0.0,0.0,84,0.00,,,0.07,VWS V14.01,2013-08-07 21:41:00,
2013-08-07 17:46:00,79.0,73.4,29.89,SSW,213,0.0,0.0,83,0.00,,,0.07,VWS V14.01,2013-08-07 21:46:00,
2013-08-07 17:51:00,78.8,72.8,29.89,SSW,213,0.0,0.0,82,0.00,,,0.07,VWS V14.01,2013-08-07 21:51:00,
2013-08-07 17:56:00,78.8,72.5,29.89,SSW,213,0.0,0.0,81,0.00,,,0.07,VWS V14.01,2013-08-07 21:56:00,
2013-08-07 18:01:00,78.8,72.5,29.89,SSW,213,0.0,0.0,81,0.00,,,0.07,VWS V14.01,2013-08-07 22:01:00,
2013-08-07 18:06:00,78.8,71.7,29.88,SSW,213,0.0,0.0,79,0.00,,,0.07,VWS V14.01,2013-08-07 22:06:00,
2013-08-07 18:11:00,79.0,71.9,29.88,SSW,213,0.0,0.0,79,0.00,,,0.07,VWS V14.01,2013-08-07 22:11:00,
2013-08-07 18:16:00,79.2,72.5,29.88,SSW,213,0.0,0.0,80,0.00,,,0.07,VWS V14.01,2013-08-07 22:16:00,
2013-08-07 18:21:00,79.2,72.9,29.89,WSW,238,0.0,0.0,81,0.00,,,0.07,VWS V14.01,2013-08-07 22:21:00,
2013-08-07 18:26:00,79.4,73.1,29.89,WSW,238,0.0,0.0,81,0.00,,,0.07,VWS V14.01,2013-08-07 22:26:00,
2013-08-07 18:31:00,79.6,72.5,29.89,WSW,238,0.0,0.0,79,0.00,,,0.07,VWS V14.01,2013-08-07 22:31:00,
2013-08-07 18:36:00,79.8,72.7,29.88,SW,232,0.0,0.0,79,0.00,,,0.07,VWS V14.01,2013-08-07 22:36:00,
2013-08-07 18:41:00,79.9,72.8,29.88,SW,232,0.0,0.0,79,0.00,,,0.07,VWS V14.01,2013-08-07 22:41:00,
2013-08-07 18:46:00,80.1,73.0,29.88,SW,232,0.0,0.0,79,0.00,,,0.07,VWS V14.01,2013-08-07 22:46:00,
2013-08-07 18:51:00,79.9,73.2,29.88,SW,232,0.0,0.0,80,0.00,,,0.07,VWS V14.01,2013-08-07 22:51:00,
2013-08-07 18:56:00,79.9,72.8,29.88,SW,232,0.0,0.0,79,0.00,,,0.07,VWS V14.01,2013-08-07 22:56:00,
2013-08-07 19:02:00,79.8,72.7,29.88,SSW,208,0.0,0.0,79,0.00,,,0.07,VWS V14.01,2013-08-07 23:02:00,
2013-08-07 19:07:00,79.8,72.7,29.88,SSW,208,0.0,0.0,79,0.00,,,0.07,VWS V14.01,2013-08-07 23:07:00,
2013-08-07 19:12:00,79.6,72.5,29.88,SSW,208,0.0,0.0,79,0.00,,,0.07,VWS V14.01,2013-08-07 23:12:00,
2013-08-07 19:17:00,79.6,72.5,29.88,SSW,208,0.0,0.0,79,0.00,,,0.07,VWS V14.01,2013-08-07 23:17:00,
2013-08-07 19:22:00,79.4,72.3,29.88,SSW,208,0.0,0.0,79,0.00,,,0.07,VWS V14.01,2013-08-07 23:22:00,
2013-08-07 19:27:00,79.4,72.3,29.88,SSW,208,0.0,0.0,79,0.00,,,0.07,VWS V14.01,2013-08-07 23:27:00,
2013-08-07 19:32:00,79.4,72.3,29.88,SSW,208,0.0,0.0,79,0.00,,,0.07,VWS V14.01,2013-08-07 23:32:00,
2013-08-07 19:37:00,79.4,72.7,29.87,SSW,208,0.0,0.0,80,0.00,,,0.07,VWS V14.01,2013-08-07 23:37:00,
2013-08-07 19:42:00,79.4,72.3,29.87,SSW,208,0.0,0.0,79,0.00,,,0.07,VWS V14.01,2013-08-07 23:42:00,
2013-08-07 19:47:00,79.4,72.7,29.87,SSW,208,0.0,0.0,80,0.00,,,0.07,VWS V14.01,2013-08-07 23:47:00,
2013-08-07 19:52:00,79.4,72.3,29.88,SSW,208,0.0,0.0,79,0.00,,,0.07,VWS V14.01,2013-08-07 23:52:00,
2013-08-07 19:57:00,79.4,72.3,29.88,SSW,208,0.0,0.0,79,0.00,,,0.07,VWS V14.01,2013-08-07 23:57:00,
2013-08-07 20:02:00,79.4,72.3,29.88,SSW,208,0.0,0.0,79,0.00,,,0.07,VWS V14.01,2013-08-08 00:02:00,
2013-08-07 20:07:00,79.4,72.7,29.88,SSW,208,0.0,0.0,80,0.00,,,0.07,VWS V14.01,2013-08-08 00:07:00,
2013-08-07 20:12:00,79.2,72.5,29.88,SSW,208,0.0,0.0,80,0.00,,,0.07,VWS V14.01,2013-08-08 00:12:00,
2013-08-07 20:17:00,79.2,72.5,29.88,SSW,208,0.0,0.0,80,0.00,,,0.07,VWS V14.01,2013-08-08 00:17:00,
2013-08-07 20:22:00,79.2,72.5,29.88,SSW,208,0.0,0.0,80,0.00,,,0.07,VWS V14.01,2013-08-08 00:22:00,
2013-08-07 20:27:00,79.2,72.5,29.88,SSW,208,0.0,0.0,80,0.00,,,0.07,VWS V14.01,2013-08-08 00:27:00,
2013-08-07 20:32:00,79.0,72.7,29.88,SSW,208,0.0,0.0,81,0.00,,,0.07,VWS V14.01,2013-08-08 00:32:00,
2013-08-07 20:37:00,78.8,72.8,29.88,SSW,209,0.0,0.0,82,0.00,,,0.07,VWS V14.01,2013-08-08 00:37:00,
2013-08-07 20:42:00,78.6,72.7,29.88,SW,217,0.0,0.0,82,0.00,,,0.07,VWS V14.01,2013-08-08 00:42:00,
2013-08-07 20:47:00,78.3,72.4,29.88,SW,217,1.0,0.0,82,0.00,,,0.07,VWS V14.01,2013-08-08 00:47:00,
2013-08-07 20:52:00,77.7,71.8,29.89,SW,217,0.0,0.0,82,0.00,,,0.07,VWS V14.01,2013-08-08 00:52:00,
2013-08-07 20:57:00,77.2,71.6,29.89,SW,217,0.0,0.0,83,0.00,,,0.07,VWS V14.01,2013-08-08 00:57:00,
2013-08-07 21:02:00,77.0,71.4,29.89,SW,217,0.0,0.0,83,0.00,,,0.07,VWS V14.01,2013-08-08 01:02:00,
2013-08-07 21:07:00,76.8,71.6,29.89,SW,217,0.0,0.0,84,0.01,,,0.08,VWS V14.01,2013-08-08 01:07:00,
2013-08-07 21:12:00,76.7,71.9,29.89,SW,217,1.0,0.0,85,0.01,,,0.08,VWS V14.01,2013-08-08 01:12:00,
2013-08-07 21:17:00,76.0,70.5,29.89,SSW,194,0.0,0.0,83,0.01,,,0.08,VWS V14.01,2013-08-08 01:17:00,
2013-08-07 21:22:00,75.6,70.1,29.91,SSW,197,0.0,0.0,83,0.01,,,0.08,VWS V14.01,2013-08-08 01:22:00,
2013-08-07 21:27:00,75.1,69.6,29.91,SSW,211,0.0,0.0,83,0.01,,,0.08,VWS V14.01,2013-08-08 01:27:00,
2013-08-07 21:32:00,74.7,69.9,29.91,NNE,17,0.0,0.0,85,0.01,,,0.08,VWS V14.01,2013-08-08 01:32:00,
2013-08-07 21:37:00,74.6,69.8,29.92,SW,235,0.0,0.0,85,0.01,,,0.08,VWS V14.01,2013-08-08 01:37:00,
2013-08-07 21:42:00,74.2,69.4,29.92,SW,235,0.0,0.0,85,0.01,,,0.08,VWS V14.01,2013-08-08 01:42:00,
2013-08-07 21:47:00,74.0,69.6,29.92,SW,235,0.0,0.0,86,0.01,,,0.08,VWS V14.01,2013-08-08 01:47:00,
2013-08-07 21:52:00,73.9,69.4,29.92,SW,235,0.0,0.0,86,0.01,,,0.08,VWS V14.01,2013-08-08 01:52:00,
2013-08-07 21:57:00,73.7,68.9,29.92,SW,235,0.0,0.0,85,0.01,,,0.08,VWS V14.01,2013-08-08 01:57:00,
2013-08-07 22:02:00,73.7,69.3,29.92,SW,235,0.0,0.0,86,0.01,,,0.08,VWS V14.01,2013-08-08 02:02:00,
2013-08-07 22:07:00,73.7,69.6,29.92,SW,235,0.0,0.0,87,0.00,,,0.08,VWS V14.01,2013-08-08 02:07:00,
2013-08-07 22:12:00,73.5,69.4,29.92,SW,235,0.0,0.0,87,0.01,,,0.09,VWS V14.01,2013-08-08 02:12:00,
2013-08-07 22:17:00,73.3,69.5,29.92,SW,235,0.0,0.0,88,0.02,,,0.10,VWS V14.01,2013-08-08 02:17:00,
2013-08-07 22:22:00,73.0,69.6,29.93,SW,235,0.0,0.0,89,0.02,,,0.10,VWS V14.01,2013-08-08 02:22:00,
2013-08-07 22:27:00,72.8,69.4,29.93,SW,235,0.0,0.0,89,0.02,,,0.10,VWS V14.01,2013-08-08 02:27:00,
2013-08-07 22:32:00,72.7,69.6,29.93,SW,235,0.0,0.0,90,0.02,,,0.10,VWS V14.01,2013-08-08 02:32:00,
2013-08-07 22:37:00,72.5,69.7,29.94,SW,235,0.0,0.0,91,0.02,,,0.10,VWS V14.01,2013-08-08 02:37:00,
2013-08-07 22:42:00,72.5,69.7,29.94,SW,235,0.0,0.0,91,0.02,,,0.10,VWS V14.01,2013-08-08 02:42:00,
2013-08-07 22:47:00,72.3,69.5,29.94,SW,235,0.0,0.0,91,0.02,,,0.10,VWS V14.01,2013-08-08 02:47:00,
2013-08-07 22:52:00,72.3,69.8,29.94,SW,235,0.0,0.0,92,0.02,,,0.10,VWS V14.01,2013-08-08 02:52:00,
2013-08-07 22:57:00,72.1,69.7,29.94,SW,235,0.0,0.0,92,0.02,,,0.10,VWS V14.01,2013-08-08 02:57:00,
2013-08-07 22:58:00,72.1,70.3,29.95,SW,235,0.0,0.0,94,0.09,,,0.19,VWS V14.01,2013-08-08 02:58:00,
2013-08-07 23:00:00,72.1,70.3,29.96,SW,232,0.0,0.0,94,0.09,,,0.19,VWS V14.01,2013-08-08 03:00:00,
2013-08-07 23:02:00,72.1,69.7,29.94,SW,235,0.0,0.0,92,0.02,,,0.10,VWS V14.01,2013-08-08 03:02:00,
2013-08-07 23:03:00,72.1,70.3,29.96,SW,232,0.0,0.0,94,0.09,,,0.00,VWS V14.01,2013-08-08 03:03:00,
2013-08-07 23:07:00,72.1,69.7,29.94,SW,235,0.0,0.0,92,0.02,,,0.10,VWS V14.01,2013-08-08 03:07:00,
2013-08-07 23:08:00,72.3,70.5,29.96,SW,232,0.0,0.0,94,0.10,,,0.01,VWS V14.01,2013-08-08 03:08:00,
2013-08-07 23:10:00,72.1,70.3,29.96,SW,232,0.0,0.0,94,0.11,,,0.02,VWS V14.01,2013-08-08 03:10:00,
2013-08-07 23:12:00,72.1,69.7,29.94,SW,235,0.0,0.0,92,0.02,,,0.10,VWS V14.01,2013-08-08 03:12:00,
2013-08-07 23:13:00,72.0,70.2,29.96,SW,232,0.0,0.0,94,0.12,,,0.03,VWS V14.01,2013-08-08 03:13:00,
2013-08-07 23:17:00,72.1,69.7,29.94,SW,235,0.0,0.0,92,0.00,,,0.10,VWS V14.01,2013-08-08 03:17:00,
2013-08-07 23:18:00,71.8,70.0,29.96,SW,232,0.0,0.0,94,0.14,,,0.05,VWS V14.01,2013-08-08 03:18:00,
2013-08-07 23:20:00,71.8,70.0,29.96,SW,232,2.0,0.0,94,0.14,,,0.05,VWS V14.01,2013-08-08 03:20:00,
2013-08-07 23:22:00,72.1,70.0,29.94,SW,235,0.0,0.0,93,0.00,,,0.10,VWS V14.01,2013-08-08 03:22:00,
2013-08-07 23:23:00,71.6,69.8,29.96,SW,234,0.0,0.0,94,0.15,,,0.06,VWS V14.01,2013-08-08 03:23:00,
2013-08-07 23:27:00,72.1,70.0,29.94,SW,235,0.0,0.0,93,0.00,,,0.10,VWS V14.01,2013-08-08 03:27:00,
2013-08-07 23:28:00,71.6,69.8,29.96,SW,234,0.0,0.0,94,0.17,,,0.08,VWS V14.01,2013-08-08 03:28:00,
2013-08-07 23:30:00,71.8,70.0,29.95,SW,234,0.0,0.0,94,0.18,,,0.09,VWS V14.01,2013-08-08 03:30:00,
2013-08-07 23:32:00,72.1,70.0,29.94,SW,235,0.0,0.0,93,0.00,,,0.10,VWS V14.01,2013-08-08 03:32:00,
2013-08-07 23:33:00,71.8,70.0,29.95,SW,234,0.0,0.0,94,0.19,,,0.10,VWS V14.01,2013-08-08 03:33:00,
2013-08-07 23:37:00,72.0,69.9,29.94,SW,235,0.0,0.0,93,0.00,,,0.10,VWS V14.01,2013-08-08 03:37:00,
2013-08-07 23:38:00,71.8,70.3,29.95,SW,234,0.0,0.0,95,0.20,,,0.11,VWS V14.01,2013-08-08 03:38:00,
2013-08-07 23:40:00,71.8,70.3,29.95,SW,234,0.0,0.0,95,0.20,,,0.11,VWS V14.01,2013-08-08 03:40:00,
2013-08-07 23:42:00,72.0,69.9,29.94,SW,235,0.0,0.0,93,0.00,,,0.10,VWS V14.01,2013-08-08 03:42:00,
2013-08-07 23:43:00,71.8,70.3,29.95,SW,234,0.0,0.0,95,0.21,,,0.12,VWS V14.01,2013-08-08 03:43:00,
2013-08-07 23:47:00,72.0,69.9,29.94,SW,235,0.0,0.0,93,0.01,,,0.11,VWS V14.01,2013-08-08 03:47:00,
2013-08-07 23:48:00,72.0,70.5,29.96,SW,234,0.0,0.0,95,0.21,,,0.12,VWS V14.01,2013-08-08 03:48:00,
2013-08-07 23:50:00,72.0,70.5,29.96,SW,234,0.0,0.0,95,0.22,,,0.13,VWS V14.01,2013-08-08 03:50:00,
2013-08-07 23:52:00,72.0,69.9,29.95,SW,235,0.0,0.0,93,0.04,,,0.14,VWS V14.01,2013-08-08 03:52:00,
2013-08-07 23:53:00,72.0,70.5,29.96,SW,234,0.0,0.0,95,0.18,,,0.14,VWS V14.01,2013-08-08 03:53:00,
2013-08-07 23:57:00,72.0,69.9,29.95,SW,235,0.0,0.0,93,0.07,,,0.17,VWS V14.01,2013-08-08 03:57:00,
2013-08-07 23:58:00,72.0,70.5,29.96,SW,234,0.0,0.0,95,0.19,,,0.15,VWS V14.01,2013-08-08 03:58:00,